createdAt,value
2022-08-05T00:00:46.511Z,2.00
2022-08-05T00:03:19.722Z,2.10
2022-08-05T00:06:04.859Z,2.40
2022-08-05T00:08:36.556Z,2.00
2022-08-05T00:11:07.515Z,1.90
2022-08-05T00:13:53.232Z,2.20
2022-08-05T00:16:35.473Z,2.30
2022-08-05T00:19:06.374Z,2.25
2022-08-05T00:21:35.628Z,2.00
2022-08-05T00:24:10.327Z,2.60
2022-08-05T00:26:39.526Z,2.30
2022-08-05T00:29:19.254Z,2.15
2022-08-05T00:32:10.047Z,2.10
2022-08-05T00:34:56.203Z,2.78
2022-08-05T00:37:50.793Z,2.10
2022-08-05T00:40:26.723Z,1.90
2022-08-05T00:42:58.451Z,2.30
2022-08-05T00:45:38.380Z,2.20
2022-08-05T00:48:09.302Z,1.90
2022-08-05T00:50:42.044Z,2.30
2022-08-05T00:54:00.111Z,2.08
2022-08-05T00:56:04.761Z,2.00
2022-08-05T00:58:33.250Z,1.85
2022-08-05T01:01:01.716Z,1.88
2022-08-05T01:03:37.320Z,1.70
2022-08-05T01:06:11.387Z,1.90
2022-08-05T01:08:44.760Z,1.77
2022-08-05T01:11:22.567Z,1.83
2022-08-05T01:14:08.905Z,1.95
2022-08-05T01:16:44.516Z,2.00
2022-08-05T01:19:46.186Z,2.28
2022-08-05T01:22:28.112Z,1.73
2022-08-05T01:25:40.478Z,2.10
2022-08-05T01:28:19.078Z,1.80
2022-08-05T01:30:55.358Z,2.00
2022-08-05T01:33:35.296Z,2.40
2022-08-05T01:36:12.862Z,1.90
2022-08-05T01:38:42.088Z,1.80
2022-08-05T01:41:12.360Z,2.13
2022-08-05T01:43:45.083Z,2.00
2022-08-05T01:46:43.073Z,2.00
2022-08-05T01:49:23.131Z,1.90
2022-08-05T01:51:58.373Z,1.90
2022-08-05T01:54:30.964Z,1.80
2022-08-05T01:58:12.658Z,2.17
2022-08-05T01:59:52.045Z,2.17
2022-08-05T02:02:28.444Z,1.77
2022-08-05T02:05:03.128Z,1.85
2022-08-05T02:07:33.751Z,2.03
2022-08-05T02:10:03.387Z,2.30
2022-08-05T02:12:38.345Z,1.90
2022-08-05T02:15:13.693Z,2.50
2022-08-05T02:18:32.320Z,2.30
2022-08-05T02:20:48.792Z,2.30
2022-08-05T02:23:22.373Z,2.50
2022-08-05T02:25:52.833Z,2.33
2022-08-05T02:28:29.218Z,2.63
2022-08-05T02:31:04.024Z,2.60
2022-08-05T02:33:38.526Z,2.30
2022-08-05T02:36:13.607Z,2.50
2022-08-05T02:38:53.192Z,2.47
2022-08-05T02:41:23.805Z,2.72
2022-08-05T02:44:02.616Z,2.90
2022-08-05T02:46:58.350Z,3.00
2022-08-05T02:49:36.983Z,3.90
2022-08-05T02:52:09.279Z,2.90
2022-08-05T02:54:41.521Z,2.70
2022-08-05T02:58:10.618Z,3.10
2022-08-05T03:00:03.439Z,3.50
2022-08-05T03:02:37.792Z,3.10
2022-08-05T03:05:09.435Z,3.15
2022-08-05T03:07:59.341Z,2.90
2022-08-05T03:10:28.927Z,3.10
2022-08-05T03:15:24.632Z,3.10
2022-08-05T03:17:57.761Z,3.30
2022-08-05T03:20:26.949Z,4.10
2022-08-05T03:22:58.039Z,4.13
2022-08-05T03:26:03.538Z,3.70
2022-08-05T03:28:18.879Z,3.10
2022-08-05T03:30:50.956Z,3.97
2022-08-05T03:33:25.353Z,4.10
2022-08-05T03:36:13.786Z,4.70
2022-08-05T03:38:43.423Z,4.45
2022-08-05T03:41:23.658Z,4.20
2022-08-05T03:44:09.269Z,4.22
2022-08-05T03:46:40.281Z,4.38
2022-08-05T03:49:09.980Z,4.70
2022-08-05T03:52:48.331Z,4.82
2022-08-05T03:55:53.699Z,4.43
2022-08-05T03:57:41.755Z,4.75
2022-08-05T04:00:15.500Z,5.20
2022-08-05T04:02:58.737Z,5.60
2022-08-05T04:05:33.560Z,5.43
2022-08-05T04:08:05.659Z,5.50
2022-08-05T04:10:38.150Z,5.90
2022-08-05T04:13:08.043Z,6.40
2022-08-05T04:15:36.857Z,6.20
2022-08-05T04:18:09.380Z,6.60
2022-08-05T04:20:41.298Z,6.40
2022-08-05T04:23:12.586Z,7.10
2022-08-05T04:26:00.334Z,6.85
2022-08-05T04:28:31.042Z,7.13
2022-08-05T04:31:01.336Z,10.00
2022-08-05T04:33:36.395Z,8.02
2022-08-05T04:36:44.740Z,7.95
2022-08-05T04:39:08.965Z,7.80
2022-08-05T04:41:38.814Z,7.88
2022-08-05T04:44:09.503Z,7.85
2022-08-05T04:46:38.836Z,8.20
2022-08-05T04:49:14.641Z,8.48
2022-08-05T04:51:45.095Z,7.97
2022-08-05T04:54:14.777Z,8.20
2022-08-05T04:56:43.629Z,10.70
2022-08-05T04:59:21.789Z,9.90
2022-08-05T05:02:07.653Z,9.57
2022-08-05T05:04:47.734Z,8.40
2022-08-05T05:07:23.893Z,8.40
2022-08-05T05:09:57.870Z,8.10
2022-08-05T05:12:27.533Z,7.32
2022-08-05T05:14:56.086Z,7.80
2022-08-05T05:17:55.420Z,7.80
2022-08-05T05:20:14.603Z,7.90
2022-08-05T05:22:44.700Z,8.27
2022-08-05T05:25:16.543Z,8.40
2022-08-05T05:27:53.558Z,8.00
2022-08-05T05:30:29.032Z,8.88
2022-08-05T05:33:00.998Z,8.98
2022-08-05T05:35:38.061Z,8.40
2022-08-05T05:38:12.859Z,9.60
2022-08-05T05:40:49.579Z,9.47
2022-08-05T05:43:22.406Z,9.38
2022-08-05T05:46:13.821Z,9.90
2022-08-05T05:48:46.019Z,9.82
2022-08-05T05:51:20.822Z,10.13
2022-08-05T05:53:57.126Z,10.18
2022-08-05T05:56:32.543Z,10.32
2022-08-05T05:59:05.254Z,10.20
2022-08-05T06:01:37.833Z,9.45
2022-08-05T06:04:08.456Z,10.05
2022-08-05T06:06:42.589Z,9.57
2022-08-05T06:09:16.806Z,10.20
2022-08-05T06:12:02.006Z,10.00
2022-08-05T06:14:31.356Z,9.23
2022-08-05T06:17:02.146Z,9.48
2022-08-05T06:19:56.542Z,9.65
2022-08-05T06:22:29.354Z,9.10
2022-08-05T06:24:59.773Z,10.10
2022-08-05T06:28:11.369Z,10.07
2022-08-05T06:30:20.008Z,9.83
2022-08-05T06:32:50.556Z,9.90
2022-08-05T06:36:03.081Z,10.30
2022-08-05T06:38:09.819Z,10.33
2022-08-05T06:40:44.452Z,10.55
2022-08-05T06:43:58.136Z,11.02
2022-08-05T06:46:06.404Z,10.70
2022-08-05T06:48:55.740Z,10.90
2022-08-05T06:51:30.114Z,11.07
2022-08-05T06:54:00.031Z,11.27
2022-08-05T06:56:30.072Z,10.10
2022-08-05T06:59:03.129Z,11.48
2022-08-05T07:01:32.495Z,10.00
2022-08-05T07:04:03.184Z,11.50
2022-08-05T07:06:32.188Z,11.63
2022-08-05T07:09:04.044Z,10.95
2022-08-05T07:11:37.053Z,11.30
2022-08-05T07:14:30.380Z,10.57
2022-08-05T07:17:58.836Z,10.50
2022-08-05T07:20:32.107Z,10.23
2022-08-05T07:22:39.002Z,10.20
2022-08-05T07:25:09.575Z,10.00
2022-08-05T07:28:05.356Z,9.90
2022-08-05T07:30:39.936Z,9.98
2022-08-05T07:33:16.191Z,9.70
2022-08-05T07:36:03.257Z,9.68
2022-08-05T07:38:43.178Z,9.63
2022-08-05T07:42:07.671Z,9.88
2022-08-05T07:44:18.520Z,9.30
2022-08-05T07:46:49.744Z,7.93
2022-08-05T07:49:19.135Z,7.30
2022-08-05T07:51:53.423Z,6.85
2022-08-05T07:54:30.720Z,7.13
2022-08-05T07:57:16.905Z,5.50
2022-08-05T07:59:52.027Z,5.80
2022-08-05T08:02:26.539Z,5.20
2022-08-05T08:04:59.498Z,5.20
2022-08-05T08:07:29.199Z,6.18
2022-08-05T08:10:08.538Z,5.25
2022-08-05T08:12:49.202Z,5.88
2022-08-05T08:15:37.044Z,5.80
2022-08-05T08:18:13.753Z,5.70
2022-08-05T08:21:02.320Z,5.10
2022-08-05T08:24:01.192Z,5.28
2022-08-05T08:26:26.920Z,5.65
2022-08-05T08:29:22.029Z,5.18
2022-08-05T08:31:49.527Z,4.77
2022-08-05T08:34:18.683Z,5.10
2022-08-05T08:36:52.521Z,4.43
2022-08-05T08:39:24.912Z,5.28
2022-08-05T08:41:59.790Z,4.32
2022-08-05T08:45:17.052Z,4.40
2022-08-05T08:48:05.436Z,4.80
2022-08-05T08:50:30.456Z,4.80
2022-08-05T08:53:08.048Z,4.40
2022-08-05T08:56:04.015Z,3.95
2022-08-05T08:58:43.005Z,3.90
2022-08-05T09:01:16.670Z,4.20
2022-08-05T09:03:55.280Z,3.67
2022-08-05T09:06:27.978Z,3.67
2022-08-05T09:08:58.182Z,3.83
2022-08-05T09:11:51.525Z,3.58
2022-08-05T09:14:56.728Z,3.45
2022-08-05T09:17:04.995Z,3.47
2022-08-05T09:20:01.649Z,3.53
2022-08-05T09:22:31.157Z,3.60
2022-08-05T09:25:01.377Z,3.45
2022-08-05T09:28:04.345Z,3.90
2022-08-05T09:30:23.725Z,3.50
2022-08-05T09:32:53.467Z,3.20
2022-08-05T09:35:26.925Z,3.38
2022-08-05T09:38:12.730Z,3.20
2022-08-05T09:40:52.597Z,3.30
2022-08-05T09:43:40.682Z,2.70
2022-08-05T09:46:27.879Z,2.80
2022-08-05T09:49:07.754Z,3.20
2022-08-05T09:51:49.519Z,2.80
2022-08-05T09:54:30.504Z,2.90
2022-08-05T09:57:01.818Z,2.77
2022-08-05T09:59:35.029Z,2.80
2022-08-05T10:02:06.396Z,3.28
2022-08-05T10:04:40.997Z,2.72
2022-08-05T10:07:19.746Z,3.30
2022-08-05T10:10:13.839Z,2.70
2022-08-05T10:12:50.411Z,2.90
2022-08-05T10:15:26.787Z,2.70
2022-08-05T10:18:11.078Z,2.70
2022-08-05T10:20:43.140Z,3.08
2022-08-05T10:23:34.743Z,3.20
2022-08-05T10:26:07.291Z,3.10
2022-08-05T10:28:36.490Z,3.00
2022-08-05T10:32:49.145Z,2.90
2022-08-05T10:33:54.270Z,3.15
2022-08-05T10:36:26.290Z,3.30
2022-08-05T10:39:10.173Z,2.90
2022-08-05T10:41:48.457Z,2.60
2022-08-05T10:44:21.380Z,2.30
2022-08-05T10:46:53.932Z,2.30
2022-08-05T10:49:26.890Z,2.67
2022-08-05T10:52:00.747Z,2.53
2022-08-05T10:55:04.812Z,2.70
2022-08-05T10:57:34.447Z,2.90
2022-08-05T11:00:18.660Z,2.80
2022-08-05T11:03:25.628Z,2.45
2022-08-05T11:06:05.713Z,2.50
2022-08-05T11:08:39.258Z,1.97
2022-08-05T11:11:44.282Z,1.80
2022-08-05T11:14:57.809Z,1.70
2022-08-05T11:17:59.385Z,2.53
2022-08-05T11:20:43.916Z,12.52
2022-08-05T11:24:04.208Z,2.72
2022-08-05T11:26:32.645Z,2.47
2022-08-05T11:29:13.498Z,2.58
2022-08-05T11:31:53.882Z,2.90
2022-08-05T11:34:50.858Z,2.03
2022-08-05T11:38:26.291Z,1.90
2022-08-05T11:41:14.119Z,1.80
2022-08-05T11:44:05.129Z,3.22
2022-08-05T11:46:58.670Z,1.80
2022-08-05T11:49:33.880Z,1.70
2022-08-05T11:52:11.095Z,1.60
2022-08-05T11:54:41.523Z,1.98
2022-08-05T11:57:25.288Z,1.92
2022-08-05T11:59:54.525Z,1.67
2022-08-05T12:02:31.565Z,1.63
2022-08-05T12:05:07.439Z,1.57
2022-08-05T12:08:08.297Z,1.70
2022-08-05T12:10:45.836Z,1.70
2022-08-05T12:13:47.445Z,1.33
2022-08-05T12:16:14.986Z,1.50
2022-08-05T12:18:49.332Z,1.50
2022-08-05T12:21:23.852Z,2.00
2022-08-05T12:23:59.881Z,1.50
2022-08-05T12:26:33.292Z,1.73
2022-08-05T12:29:01.669Z,1.77
2022-08-05T12:31:43.739Z,1.60
2022-08-05T12:34:23.503Z,1.70
2022-08-05T12:36:54.379Z,1.60
2022-08-05T12:39:34.312Z,1.50
2022-08-05T12:42:14.819Z,5.15
2022-08-05T12:44:45.900Z,1.73
2022-08-05T12:47:28.800Z,1.90
2022-08-05T12:50:02.276Z,2.40
2022-08-05T12:52:39.425Z,1.60
2022-08-05T12:55:23.558Z,1.70
2022-08-05T12:58:51.349Z,1.70
2022-08-05T13:02:03.100Z,2.70
2022-08-05T13:03:41.677Z,2.30
2022-08-05T13:06:16.595Z,1.80
2022-08-05T13:08:52.123Z,2.00
2022-08-05T13:11:57.957Z,2.00
2022-08-05T13:14:20.003Z,1.88
2022-08-05T13:16:54.799Z,1.80
2022-08-05T13:19:26.194Z,2.10
2022-08-05T13:21:56.893Z,2.00
2022-08-05T13:24:27.742Z,2.00
2022-08-05T13:27:23.102Z,1.80
2022-08-05T13:30:35.799Z,1.90
2022-08-05T13:32:51.723Z,2.20
2022-08-05T13:35:22.142Z,1.83
2022-08-05T13:37:55.790Z,1.90
2022-08-05T13:40:36.766Z,1.75
2022-08-05T13:43:12.865Z,1.70
2022-08-05T13:45:50.793Z,1.60
2022-08-05T13:48:57.114Z,1.92
2022-08-05T13:51:08.566Z,1.58
2022-08-05T13:53:47.516Z,1.30
2022-08-05T13:56:18.851Z,1.42
2022-08-05T13:58:53.461Z,1.85
2022-08-05T14:01:27.368Z,1.33
2022-08-05T14:04:28.403Z,1.20
2022-08-05T14:07:12.082Z,1.50
2022-08-05T14:09:46.787Z,1.42
2022-08-05T14:12:17.980Z,2.00
2022-08-05T14:15:00.492Z,1.30
2022-08-05T14:17:34.414Z,1.50
2022-08-05T14:20:04.379Z,1.80
2022-08-05T14:22:34.437Z,4.55
2022-08-05T14:25:06.333Z,3.28
2022-08-05T14:27:50.977Z,2.55
2022-08-05T14:30:20.776Z,2.55
2022-08-05T14:32:50.211Z,1.88
2022-08-05T14:35:20.669Z,2.90
2022-08-05T14:37:55.476Z,2.75
2022-08-05T14:40:25.483Z,2.47
2022-08-05T14:42:53.877Z,3.60
2022-08-05T14:45:24.270Z,1.40
2022-08-05T14:48:02.913Z,2.15
2022-08-05T14:50:33.132Z,1.63
2022-08-05T14:53:07.195Z,1.50
2022-08-05T14:55:39.982Z,1.50
2022-08-05T14:58:11.611Z,1.80
2022-08-05T15:00:59.542Z,1.33
2022-08-05T15:03:33.788Z,1.35
2022-08-05T15:06:14.827Z,1.20
2022-08-05T15:08:59.887Z,1.50
2022-08-05T15:11:51.309Z,1.30
2022-08-05T15:14:35.794Z,1.20
2022-08-05T15:17:44.512Z,1.20
2022-08-05T15:19:58.351Z,1.00
2022-08-05T15:22:28.225Z,1.00
2022-08-05T15:24:58.916Z,1.10
2022-08-05T15:27:32.248Z,0.80
2022-08-05T15:30:05.424Z,0.85
2022-08-05T15:32:34.766Z,0.70
2022-08-05T15:35:09.789Z,0.60
2022-08-05T15:38:32.562Z,0.77
2022-08-05T15:41:01.992Z,1.08
2022-08-05T15:43:21.932Z,3.30
2022-08-05T15:46:00.407Z,2.22
2022-08-05T15:48:29.989Z,1.48
2022-08-05T15:51:01.568Z,1.20
2022-08-05T15:53:38.522Z,1.10
2022-08-05T15:56:20.191Z,0.60
2022-08-05T15:58:50.124Z,0.60
2022-08-05T16:01:20.154Z,0.80
2022-08-05T16:03:50.825Z,0.70
2022-08-05T16:06:22.778Z,0.52
2022-08-05T16:08:55.228Z,0.60
2022-08-05T16:11:42.545Z,0.60
2022-08-05T16:14:17.229Z,0.50
2022-08-05T16:16:46.644Z,0.60
2022-08-05T16:19:25.409Z,0.70
2022-08-05T16:22:04.003Z,0.70
2022-08-05T16:24:41.050Z,0.90
2022-08-05T16:27:19.335Z,1.63
2022-08-05T16:30:02.089Z,2.97
2022-08-05T16:32:30.890Z,2.60
2022-08-05T16:34:59.918Z,1.05
2022-08-05T16:38:03.039Z,4.57
2022-08-05T16:40:26.460Z,0.90
2022-08-05T16:42:57.485Z,0.90
2022-08-05T16:46:03.986Z,0.93
2022-08-05T16:48:25.403Z,0.80
2022-08-05T16:51:03.837Z,1.02
2022-08-05T16:54:04.998Z,0.80
2022-08-05T16:56:28.392Z,0.80
2022-08-05T16:58:56.735Z,0.80
2022-08-05T17:01:26.768Z,1.30
2022-08-05T17:03:55.182Z,0.90
2022-08-05T17:06:24.911Z,0.60
2022-08-05T17:08:54.302Z,6.50
2022-08-05T17:11:25.541Z,2.60
2022-08-05T17:14:05.281Z,0.93
2022-08-05T17:16:37.294Z,0.50
2022-08-05T17:19:07.542Z,0.70
2022-08-05T17:21:39.679Z,0.70
2022-08-05T17:24:19.569Z,1.92
2022-08-05T17:26:58.666Z,2.08
2022-08-05T17:29:33.697Z,5.68
2022-08-05T17:32:11.902Z,1.40
2022-08-05T17:34:47.611Z,1.80
2022-08-05T17:37:41.844Z,0.82
2022-08-05T17:40:10.139Z,0.60
2022-08-05T17:42:41.802Z,0.70
2022-08-05T17:45:20.646Z,0.70
2022-08-05T17:47:55.024Z,0.80
2022-08-05T17:50:28.166Z,0.60
2022-08-05T17:53:00.257Z,1.20
2022-08-05T17:55:37.294Z,5.77
2022-08-05T17:58:09.630Z,2.15
2022-08-05T18:00:40.794Z,1.05
2022-08-05T18:06:11.819Z,0.60
2022-08-05T18:08:44.586Z,0.70
2022-08-05T18:11:24.818Z,0.80
2022-08-05T18:14:03.211Z,0.90
2022-08-05T18:16:33.107Z,0.63
2022-08-05T18:19:03.773Z,0.70
2022-08-05T18:22:07.678Z,0.60
2022-08-05T18:24:21.012Z,0.60
2022-08-05T18:26:49.486Z,0.70
2022-08-05T18:29:17.841Z,0.70
2022-08-05T18:32:06.917Z,0.63
2022-08-05T18:34:43.188Z,0.70
2022-08-05T18:37:12.229Z,0.60
2022-08-05T18:40:31.145Z,1.20
2022-08-05T18:42:29.571Z,2.00
2022-08-05T18:44:57.958Z,1.05
2022-08-05T18:47:28.548Z,3.55
2022-08-05T18:50:17.836Z,1.10
2022-08-05T18:52:51.093Z,1.10
2022-08-05T18:55:21.477Z,0.90
2022-08-05T18:57:54.102Z,1.13
2022-08-05T19:00:31.481Z,0.70
2022-08-05T19:03:04.747Z,0.73
2022-08-05T19:06:12.566Z,0.80
2022-08-05T19:08:30.975Z,1.40
2022-08-05T19:11:04.471Z,0.80
2022-08-05T19:13:35.678Z,0.60
2022-08-05T19:16:22.150Z,0.60
2022-08-05T19:18:54.021Z,0.80
2022-08-05T19:21:34.200Z,0.75
2022-08-05T19:24:09.053Z,0.90
2022-08-05T19:26:54.917Z,0.60
2022-08-05T19:29:26.607Z,0.80
2022-08-05T19:32:04.420Z,0.80
2022-08-05T19:34:32.932Z,0.70
2022-08-05T19:37:02.947Z,0.90
2022-08-05T19:39:32.052Z,0.80
2022-08-05T19:42:15.332Z,0.80
2022-08-05T19:44:45.011Z,0.93
2022-08-05T19:47:16.487Z,1.10
2022-08-05T19:49:46.024Z,2.53
2022-08-05T19:52:30.217Z,2.00
2022-08-05T19:55:08.762Z,1.38
2022-08-05T19:58:06.753Z,1.00
2022-08-05T20:00:38.635Z,1.05
2022-08-05T20:03:09.216Z,0.88
2022-08-05T20:05:50.104Z,1.13
2022-08-05T20:08:20.895Z,0.70
2022-08-05T20:10:53.156Z,0.60
2022-08-05T20:13:54.689Z,0.60
2022-08-05T20:16:10.334Z,0.60
2022-08-05T20:18:39.320Z,0.60
2022-08-05T20:21:08.276Z,0.80
2022-08-05T20:23:51.253Z,0.90
2022-08-05T20:26:22.073Z,0.80
2022-08-05T20:28:55.812Z,0.70
2022-08-05T20:31:36.836Z,0.80
2022-08-05T20:34:06.003Z,0.90
2022-08-05T20:36:36.902Z,0.82
2022-08-05T20:39:12.016Z,0.80
2022-08-05T20:41:43.266Z,0.80
2022-08-05T20:44:18.579Z,0.70
2022-08-05T20:46:57.771Z,0.80
2022-08-05T20:49:26.959Z,0.75
2022-08-05T20:51:55.954Z,0.60
2022-08-05T20:54:42.759Z,0.70
2022-08-05T20:57:41.940Z,0.70
2022-08-05T21:00:20.011Z,0.90
2022-08-05T21:02:57.846Z,0.90
2022-08-05T21:05:37.961Z,0.80
2022-08-05T21:08:14.698Z,0.80
2022-08-05T21:10:48.549Z,1.08
2022-08-05T21:13:37.859Z,0.90
2022-08-05T21:16:06.188Z,0.73
2022-08-05T21:18:34.574Z,1.10
2022-08-05T21:21:04.586Z,0.80
2022-08-05T21:23:37.163Z,0.90
2022-08-05T21:26:14.392Z,0.75
2022-08-05T21:28:50.541Z,0.90
2022-08-05T21:31:19.495Z,0.80
2022-08-05T21:33:49.628Z,1.00
2022-08-05T21:36:27.699Z,1.00
2022-08-05T21:38:58.708Z,1.10
2022-08-05T21:41:33.078Z,1.00
2022-08-05T21:44:04.050Z,0.68
2022-08-05T21:46:34.420Z,0.80
2022-08-05T21:49:07.508Z,0.80
2022-08-05T21:52:22.923Z,0.80
2022-08-05T21:54:30.813Z,0.65
2022-08-05T22:00:03.340Z,1.00
2022-08-05T22:02:41.743Z,0.80
2022-08-05T22:05:11.749Z,0.90
2022-08-05T22:07:59.319Z,0.80
2022-08-05T22:10:29.481Z,1.00
2022-08-05T22:14:06.627Z,0.75
2022-08-05T22:16:00.383Z,0.77
2022-08-05T22:18:30.404Z,0.77
2022-08-05T22:21:00.390Z,0.70
2022-08-05T22:24:02.432Z,0.90
2022-08-05T22:26:54.656Z,0.80
2022-08-05T22:29:32.840Z,0.82
2022-08-05T22:32:03.068Z,0.80
2022-08-05T22:34:32.167Z,0.90
2022-08-05T22:37:00.764Z,0.75
2022-08-05T22:39:34.528Z,0.93
2022-08-05T22:42:11.385Z,0.90
2022-08-05T22:44:53.761Z,0.90
2022-08-05T22:47:29.441Z,1.00
2022-08-05T22:50:19.892Z,0.80
2022-08-05T22:52:48.507Z,0.90
2022-08-05T22:55:18.650Z,1.33
2022-08-05T22:57:49.119Z,1.00
2022-08-05T23:00:21.683Z,0.90
2022-08-05T23:02:52.095Z,0.85
2022-08-05T23:05:22.549Z,1.13
2022-08-05T23:07:51.841Z,1.10
2022-08-05T23:10:23.910Z,0.80
2022-08-05T23:12:54.912Z,1.00
2022-08-05T23:15:29.131Z,0.83
2022-08-05T23:18:01.056Z,0.80
2022-08-05T23:20:32.467Z,1.30
2022-08-05T23:23:05.669Z,1.15
2022-08-05T23:25:52.763Z,1.00
2022-08-05T23:28:28.880Z,1.00
2022-08-05T23:31:16.231Z,1.10
2022-08-05T23:34:06.268Z,1.20
2022-08-05T23:36:39.779Z,1.10
2022-08-05T23:39:17.640Z,1.20
2022-08-05T23:42:01.522Z,1.10
2022-08-05T23:44:31.308Z,1.30
2022-08-05T23:47:02.682Z,1.03
2022-08-05T23:49:45.723Z,1.10
2022-08-05T23:52:30.717Z,1.00
2022-08-05T23:55:01.467Z,1.20
2022-08-05T23:57:30.283Z,0.95
